ENRS/RET METAR and TAF weather

Enter ICAO airport designator
Station Type Date Time Source
ENRS METAR 2019/06/20 07:50 UTC NOAA

ENRS 200750Z 06015KT CAVOK 11/09 Q1009


Station Type Date Time Source
ENRS Decoded METAR 2019/06/20 07:50 UTC NOAA

Rost Flyplass, Norway (ENRS) 67-31N 012-06E
Jun 20, 2019 - 03:50 AM EDT / 2019.06.20 0750 UTC
Wind: from the ENE (060 degrees) at 17 MPH (15 KT):0
Visibility: greater than 7 mile(s):0
Temperature: 51 F (11 C)
Dew Point: 48 F (9 C)
Relative Humidity: 87%
Pressure (altimeter): 29.80 in. Hg (1009 hPa)
ob: ENRS 200750Z 06015KT CAVOK 11/09 Q1009
cycle: 8

Station Type Date Time Source
ENRS TAF UTC NOAA

Error!

Example: see airport list